Terminal Aerodrome Forecast
Issued by NWS

Home | Current Version | Previous Version | Text Only | Print | Product List | Glossary On
Versions: 1 2 3 4 5 6 7 8 9 10 11 12 13 14 15 16
000
FTUS42 KTBW 051512 AAD
TAFPGD
TAF AMD
KPGD 051512Z 0515/0612 14011G20KT P6SM SCT005 SCT250
     FM051600 16012G20KT P6SM SCT015 BKN030 OVC050
     FM052000 20015G22KT P6SM VCSH SCT025 BKN040 OVC080
     FM060100 16006KT P6SM VCSH SCT025 OVC050
     FM060600 16011KT 4SM -RA BR VCTS SCT010CB OVC020=

USA.gov is the U.S. government's official web portal to all federal, state and local government web resources and services.